Terminal Aerodrome Forecast
Issued by NWS

Home | Current Version | Previous Version | Text Only | Print | Product List | Glossary On
Versions: 1 2 3 4 5 6 7 8 9 10 11 12 13 14 15 16 17 18 19 20 21 22
000
FTUS41 KRNK 300700 AAA
TAFBCB
TAF AMD
KBCB 300700Z 3007/0106 09007KT 5SM BR OVC004
     FM301200 11008KT 4SM -DZ BR OVC005
     FM301800 12007KT 5SM -RADZ BR SCT008 OVC012
     FM302200 13006KT 6SM -SHRA BR SCT012 OVC018=

USA.gov is the U.S. government's official web portal to all federal, state and local government web resources and services.